createdAt,value
2023-03-20T00:01:19.905Z,87.73
2023-03-20T00:03:46.862Z,87.96
2023-03-20T00:06:20.505Z,88.29
2023-03-20T00:08:48.697Z,88.18
2023-03-20T00:11:30.773Z,88.44
2023-03-20T00:13:59.861Z,88.55
2023-03-20T00:16:31.793Z,88.65
2023-03-20T00:18:58.772Z,88.22
2023-03-20T00:21:25.832Z,88.49
2023-03-20T00:23:54.642Z,88.15
2023-03-20T00:26:25.216Z,88.35
2023-03-20T00:28:52.140Z,88.43
2023-03-20T00:31:26.739Z,88.20
2023-03-20T00:33:56.132Z,88.11
2023-03-20T00:36:23.276Z,88.01
2023-03-20T00:38:50.330Z,88.29
2023-03-20T00:41:42.258Z,88.09
2023-03-20T00:44:46.143Z,88.23
2023-03-20T00:47:19.525Z,88.46
2023-03-20T00:49:48.366Z,88.49
2023-03-20T00:52:16.331Z,88.73
2023-03-20T00:54:42.708Z,88.41
2023-03-20T00:57:14.257Z,88.37
2023-03-20T00:59:51.635Z,88.58
2023-03-20T01:02:18.174Z,88.56
2023-03-20T01:04:44.642Z,88.56
2023-03-20T01:07:14.710Z,88.43
2023-03-20T01:09:41.665Z,88.20
2023-03-20T01:12:10.509Z,88.32
2023-03-20T01:14:36.977Z,88.09
2023-03-20T01:17:03.491Z,87.89
2023-03-20T01:19:29.884Z,87.75
2023-03-20T01:21:56.638Z,87.72
2023-03-20T01:24:23.132Z,87.57
2023-03-20T01:26:51.769Z,87.09
2023-03-20T01:29:21.642Z,86.87
2023-03-20T01:31:49.507Z,86.86
2023-03-20T01:34:19.182Z,86.81
2023-03-20T01:36:49.737Z,86.79
2023-03-20T01:39:17.965Z,86.38
2023-03-20T01:41:45.292Z,86.53
2023-03-20T01:44:19.678Z,86.29
2023-03-20T01:46:46.602Z,86.30
2023-03-20T01:49:19.002Z,86.30
2023-03-20T01:51:45.665Z,86.28
2023-03-20T01:54:21.994Z,86.18
2023-03-20T01:56:54.369Z,85.73
2023-03-20T01:59:27.511Z,85.68
2023-03-20T02:01:54.154Z,85.51
2023-03-20T02:04:26.426Z,85.36
2023-03-20T02:06:53.080Z,85.60
2023-03-20T02:09:19.518Z,85.47
2023-03-20T02:11:46.637Z,85.60
2023-03-20T02:14:14.128Z,85.55
2023-03-20T02:16:41.037Z,85.21
2023-03-20T02:19:17.671Z,85.50
2023-03-20T02:22:02.909Z,85.72
2023-03-20T02:25:15.862Z,85.66
2023-03-20T02:28:10.492Z,85.59
2023-03-20T02:31:04.060Z,85.65
2023-03-20T02:33:59.443Z,85.77
2023-03-20T02:37:03.546Z,85.54
2023-03-20T02:39:53.128Z,85.99
2023-03-20T02:42:36.415Z,86.32
2023-03-20T02:45:41.841Z,86.19
2023-03-20T02:48:33.739Z,86.19
2023-03-20T02:51:12.344Z,86.06
2023-03-20T02:53:51.385Z,86.13
2023-03-20T02:56:36.443Z,86.50
2023-03-20T02:59:30.572Z,86.18
2023-03-20T03:02:05.947Z,86.27
2023-03-20T03:04:38.218Z,86.17
2023-03-20T03:07:07.835Z,86.40
2023-03-20T03:10:01.505Z,86.34
2023-03-20T03:12:33.082Z,86.43
2023-03-20T03:15:07.537Z,86.18
2023-03-20T03:17:37.168Z,86.10
2023-03-20T03:20:09.520Z,86.17
2023-03-20T03:22:36.404Z,86.26
2023-03-20T03:25:02.940Z,86.05
2023-03-20T03:27:36.999Z,86.25
2023-03-20T03:30:10.502Z,86.29
2023-03-20T03:32:49.527Z,86.16
2023-03-20T03:35:21.724Z,86.29
2023-03-20T03:38:00.892Z,86.26
2023-03-20T03:40:37.099Z,86.19
2023-03-20T03:43:11.562Z,86.05
2023-03-20T03:46:14.408Z,86.30
2023-03-20T03:48:49.882Z,86.43
2023-03-20T03:51:21.659Z,86.51
2023-03-20T03:53:57.430Z,86.53
2023-03-20T03:56:26.621Z,86.58
2023-03-20T03:58:56.738Z,86.71
2023-03-20T04:01:25.581Z,86.79
2023-03-20T04:04:00.999Z,86.89
2023-03-20T04:06:28.094Z,86.65
2023-03-20T04:08:54.842Z,87.17
2023-03-20T04:11:28.503Z,86.92
2023-03-20T04:13:55.923Z,87.34
2023-03-20T04:16:23.980Z,87.13
2023-03-20T04:18:50.859Z,87.13
2023-03-20T04:21:17.925Z,87.17
2023-03-20T04:23:45.058Z,87.49
2023-03-20T04:26:11.699Z,87.16
2023-03-20T04:28:38.136Z,87.46
2023-03-20T04:31:04.753Z,87.41
2023-03-20T04:33:31.286Z,87.56
2023-03-20T04:35:57.865Z,87.46
2023-03-20T04:38:25.033Z,87.38
2023-03-20T04:40:51.729Z,87.14
2023-03-20T04:43:18.616Z,87.34
2023-03-20T04:45:45.154Z,87.30
2023-03-20T04:48:11.970Z,87.37
2023-03-20T04:50:38.795Z,87.38
2023-03-20T04:53:05.786Z,87.40
2023-03-20T04:55:32.426Z,87.46
2023-03-20T04:57:58.887Z,87.38
2023-03-20T05:00:25.455Z,87.13
2023-03-20T05:02:51.932Z,87.07
2023-03-20T05:05:18.394Z,87.55
2023-03-20T05:07:44.953Z,87.47
2023-03-20T05:10:11.685Z,87.42
2023-03-20T05:12:38.163Z,87.23
2023-03-20T05:15:04.939Z,87.34
2023-03-20T05:17:31.407Z,87.34
2023-03-20T05:19:57.928Z,87.50
2023-03-20T05:22:24.421Z,87.75
2023-03-20T05:24:51.241Z,87.53
2023-03-20T05:27:18.030Z,87.42
2023-03-20T05:29:44.518Z,87.83
2023-03-20T05:32:12.723Z,87.46
2023-03-20T05:34:39.460Z,87.60
2023-03-20T05:37:05.993Z,87.83
2023-03-20T05:39:32.559Z,87.48
2023-03-20T05:41:58.986Z,87.77
2023-03-20T05:44:25.538Z,87.94
2023-03-20T05:46:52.187Z,87.66
2023-03-20T05:49:18.621Z,87.63
2023-03-20T05:51:45.406Z,87.38
2023-03-20T05:54:11.834Z,87.70
2023-03-20T05:56:38.362Z,87.67
2023-03-20T05:59:04.901Z,87.33
2023-03-20T06:01:31.356Z,87.67
2023-03-20T06:03:57.874Z,87.76
2023-03-20T06:06:24.424Z,87.53
2023-03-20T06:08:51.112Z,87.37
2023-03-20T06:11:17.685Z,87.54
2023-03-20T06:13:44.168Z,87.69
2023-03-20T06:16:11.020Z,87.55
2023-03-20T06:18:39.146Z,87.58
2023-03-20T06:21:06.141Z,87.25
2023-03-20T06:23:32.644Z,87.23
2023-03-20T06:25:59.072Z,87.48
2023-03-20T06:28:25.596Z,87.38
2023-03-20T06:30:53.400Z,87.53
2023-03-20T06:33:20.084Z,87.35
2023-03-20T06:35:48.330Z,87.41
2023-03-20T06:38:15.191Z,87.28
2023-03-20T06:40:43.041Z,87.24
2023-03-20T06:43:12.315Z,87.24
2023-03-20T06:45:40.470Z,87.22
2023-03-20T06:48:08.345Z,87.44
2023-03-20T06:50:34.834Z,87.37
2023-03-20T06:53:01.878Z,87.50
2023-03-20T06:55:28.478Z,86.88
2023-03-20T06:57:55.277Z,87.04
2023-03-20T07:00:22.122Z,87.05
2023-03-20T07:02:49.069Z,87.55
2023-03-20T07:05:16.275Z,87.47
2023-03-20T07:07:42.837Z,87.10
2023-03-20T07:10:09.958Z,87.21
2023-03-20T07:12:36.469Z,87.21
2023-03-20T07:15:03.260Z,87.27
2023-03-20T07:17:29.643Z,87.28
2023-03-20T07:19:56.764Z,87.28
2023-03-20T07:22:26.030Z,87.15
2023-03-20T07:24:52.754Z,87.01
2023-03-20T07:27:19.221Z,87.24
2023-03-20T07:29:46.340Z,87.15
2023-03-20T07:32:12.845Z,87.14
2023-03-20T07:34:39.319Z,87.09
2023-03-20T07:37:05.880Z,86.97
2023-03-20T07:39:32.649Z,87.15
2023-03-20T07:41:59.278Z,87.07
2023-03-20T07:44:25.768Z,86.89
2023-03-20T07:46:52.278Z,86.82
2023-03-20T07:49:19.421Z,86.76
2023-03-20T07:51:47.000Z,86.76
2023-03-20T07:54:13.975Z,86.49
2023-03-20T07:56:40.533Z,86.61
2023-03-20T07:59:07.462Z,86.10
2023-03-20T08:01:34.269Z,86.15
2023-03-20T08:04:01.048Z,86.36
2023-03-20T08:06:27.609Z,86.07
2023-03-20T08:08:54.275Z,85.87
2023-03-20T08:11:20.765Z,85.52
2023-03-20T08:13:47.242Z,84.87
2023-03-20T08:16:13.913Z,85.07
2023-03-20T08:18:40.443Z,84.74
2023-03-20T08:21:07.434Z,84.64
2023-03-20T08:23:33.947Z,84.42
2023-03-20T08:26:00.585Z,83.95
2023-03-20T08:28:45.876Z,82.88
2023-03-20T08:31:13.431Z,83.41
2023-03-20T08:33:40.530Z,83.16
2023-03-20T08:36:07.805Z,83.26
2023-03-20T08:38:34.284Z,82.50
2023-03-20T08:41:00.798Z,82.81
2023-03-20T08:43:27.252Z,82.37
2023-03-20T08:45:54.417Z,82.01
2023-03-20T08:48:21.119Z,82.27
2023-03-20T08:50:47.637Z,81.59
2023-03-20T08:53:14.097Z,81.79
2023-03-20T08:55:40.575Z,81.66
2023-03-20T08:58:07.086Z,81.67
2023-03-20T09:00:33.647Z,81.01
2023-03-20T09:03:00.243Z,80.97
2023-03-20T09:05:26.702Z,81.04
2023-03-20T09:07:53.140Z,81.46
2023-03-20T09:10:19.718Z,81.58
2023-03-20T09:12:46.171Z,81.74
2023-03-20T09:15:12.749Z,81.70
2023-03-20T09:17:39.247Z,82.49
2023-03-20T09:20:06.427Z,82.87
2023-03-20T09:22:33.498Z,82.99
2023-03-20T09:24:59.909Z,83.01
2023-03-20T09:27:26.292Z,83.11
2023-03-20T09:29:52.693Z,82.94
2023-03-20T09:32:19.246Z,83.38
2023-03-20T09:34:45.909Z,83.52
2023-03-20T09:37:12.367Z,83.20
2023-03-20T09:39:38.793Z,83.55
2023-03-20T09:42:32.378Z,83.79
2023-03-20T09:44:58.728Z,84.00
2023-03-20T09:47:52.652Z,84.35
2023-03-20T09:50:28.734Z,83.62
2023-03-20T09:53:11.454Z,83.38
2023-03-20T09:55:40.400Z,83.36
2023-03-20T09:58:25.012Z,83.46
2023-03-20T10:00:51.597Z,83.59
2023-03-20T10:03:17.972Z,83.28
2023-03-20T10:05:49.141Z,84.02
2023-03-20T10:08:19.083Z,83.95
2023-03-20T10:11:23.792Z,83.98
2023-03-20T10:14:09.078Z,83.30
2023-03-20T10:16:43.566Z,83.41
2023-03-20T10:19:34.039Z,82.84
2023-03-20T10:22:14.242Z,83.45
2023-03-20T10:24:51.432Z,83.38
2023-03-20T10:27:37.002Z,83.35
2023-03-20T10:30:12.503Z,83.61
2023-03-20T10:32:49.080Z,83.42
2023-03-20T10:35:53.455Z,83.44
2023-03-20T10:38:49.271Z,83.62
2023-03-20T10:41:28.658Z,83.29
2023-03-20T10:43:57.881Z,83.67
2023-03-20T10:46:31.723Z,84.22
2023-03-20T10:49:14.747Z,83.97
2023-03-20T10:51:48.134Z,83.75
2023-03-20T10:54:29.574Z,83.44
2023-03-20T10:56:59.199Z,83.63
2023-03-20T10:59:38.303Z,82.94
2023-03-20T11:02:15.632Z,83.00
2023-03-20T11:04:42.041Z,83.76
2023-03-20T11:07:23.721Z,83.47
2023-03-20T11:10:05.485Z,84.44
2023-03-20T11:12:44.162Z,84.80
2023-03-20T11:15:33.915Z,84.00
2023-03-20T11:18:03.651Z,84.47
2023-03-20T11:20:45.549Z,85.06
2023-03-20T11:23:17.686Z,85.41
2023-03-20T11:25:52.638Z,85.50
2023-03-20T11:28:21.384Z,85.57
2023-03-20T11:31:03.854Z,85.94
2023-03-20T11:33:31.034Z,86.23
2023-03-20T11:35:59.334Z,85.89
2023-03-20T11:38:26.278Z,86.36
2023-03-20T11:40:53.646Z,86.32
2023-03-20T11:43:23.154Z,85.82
2023-03-20T11:45:55.593Z,86.03
2023-03-20T11:48:35.869Z,85.99
2023-03-20T11:51:08.490Z,86.13
2023-03-20T11:53:48.117Z,85.75
2023-03-20T11:56:26.645Z,85.96
2023-03-20T11:59:18.175Z,86.00
2023-03-20T12:01:50.636Z,85.70
2023-03-20T12:04:18.327Z,86.00
2023-03-20T12:06:54.123Z,86.59
2023-03-20T12:09:26.723Z,86.18
2023-03-20T12:12:37.690Z,85.29
2023-03-20T12:15:13.013Z,85.96
2023-03-20T12:17:51.442Z,86.02
2023-03-20T12:20:39.746Z,86.50
2023-03-20T12:23:12.049Z,86.58
2023-03-20T12:25:42.988Z,86.84
2023-03-20T12:28:13.855Z,86.28
2023-03-20T12:31:07.342Z,86.48
2023-03-20T12:34:01.363Z,86.86
2023-03-20T12:36:49.633Z,86.93
2023-03-20T12:39:19.780Z,87.71
2023-03-20T12:42:04.936Z,88.36
2023-03-20T12:44:50.272Z,88.46
2023-03-20T12:47:53.813Z,88.57
2023-03-20T12:50:35.648Z,89.08
2023-03-20T12:53:28.187Z,89.61
2023-03-20T12:56:19.540Z,88.86
2023-03-20T12:58:52.007Z,89.09
2023-03-20T13:01:31.869Z,89.48
2023-03-20T13:04:05.511Z,89.75
2023-03-20T13:06:41.024Z,90.18
2023-03-20T13:09:23.158Z,90.21
2023-03-20T13:12:24.977Z,90.28
2023-03-20T13:15:14.801Z,90.32
2023-03-20T13:17:55.368Z,90.52
2023-03-20T13:20:33.295Z,90.61
2023-03-20T13:23:31.604Z,91.00
2023-03-20T13:26:23.656Z,91.07
2023-03-20T13:29:14.384Z,91.54
2023-03-20T13:31:53.085Z,91.23
2023-03-20T13:34:57.424Z,91.30
2023-03-20T13:37:46.495Z,91.72
2023-03-20T13:40:21.184Z,92.08
2023-03-20T13:42:59.259Z,91.64
2023-03-20T13:45:38.000Z,91.96
2023-03-20T13:48:19.654Z,92.51
2023-03-20T13:50:55.920Z,92.18
2023-03-20T13:53:33.238Z,92.25
2023-03-20T13:56:12.591Z,92.22
2023-03-20T13:59:16.569Z,92.53
2023-03-20T14:01:58.757Z,92.66
2023-03-20T14:04:27.202Z,92.74
2023-03-20T14:06:55.766Z,92.43
2023-03-20T14:09:34.135Z,92.14
2023-03-20T14:12:04.011Z,92.09
2023-03-20T14:14:32.738Z,92.26
2023-03-20T14:17:09.301Z,92.20
2023-03-20T14:19:37.634Z,92.36
2023-03-20T14:22:05.465Z,92.34
2023-03-20T14:24:40.521Z,91.98
2023-03-20T14:27:08.106Z,92.01
2023-03-20T14:29:37.207Z,92.22
2023-03-20T14:32:03.737Z,92.14
2023-03-20T14:34:48.276Z,92.20
2023-03-20T14:38:02.847Z,92.32
2023-03-20T14:40:34.741Z,92.13
2023-03-20T14:43:06.314Z,92.27
2023-03-20T14:45:42.091Z,92.47
2023-03-20T14:48:28.810Z,92.28
2023-03-20T14:51:22.657Z,92.60
2023-03-20T14:54:18.934Z,93.00
2023-03-20T14:56:45.412Z,93.47
2023-03-20T14:59:14.280Z,93.82
2023-03-20T15:01:58.711Z,94.01
2023-03-20T15:04:28.250Z,94.32
2023-03-20T15:07:00.710Z,94.54
2023-03-20T15:09:31.089Z,94.68
2023-03-20T15:12:04.371Z,94.50
2023-03-20T15:14:36.031Z,94.82
2023-03-20T15:17:04.314Z,95.22
2023-03-20T15:19:31.967Z,95.52
2023-03-20T15:21:59.779Z,95.68
2023-03-20T15:24:30.122Z,96.07
2023-03-20T15:27:01.617Z,95.97
2023-03-20T15:29:31.463Z,96.01
2023-03-20T15:32:12.972Z,96.23
2023-03-20T15:34:41.978Z,96.57
2023-03-20T15:37:14.399Z,96.06
2023-03-20T15:39:53.712Z,96.51
2023-03-20T15:42:22.005Z,96.90
2023-03-20T15:44:50.370Z,96.66
2023-03-20T15:47:21.162Z,97.29
2023-03-20T15:50:00.036Z,97.11
2023-03-20T15:52:28.782Z,96.94
2023-03-20T15:54:58.288Z,97.61
2023-03-20T15:57:39.804Z,97.37
2023-03-20T16:00:11.136Z,97.54
2023-03-20T16:02:37.884Z,97.98
2023-03-20T16:05:05.160Z,98.36
2023-03-20T16:07:33.637Z,98.32
2023-03-20T16:10:00.242Z,98.52
2023-03-20T16:12:27.443Z,98.49
2023-03-20T16:14:55.722Z,98.50
2023-03-20T16:17:24.986Z,98.31
2023-03-20T16:19:51.968Z,98.42
2023-03-20T16:22:27.126Z,98.69
2023-03-20T16:24:58.173Z,98.58
2023-03-20T16:27:35.818Z,98.75
2023-03-20T16:30:16.658Z,98.76
2023-03-20T16:32:47.308Z,98.81
2023-03-20T16:35:16.458Z,98.85
2023-03-20T16:37:53.795Z,98.87
2023-03-20T16:40:22.521Z,99.13
2023-03-20T16:42:50.087Z,99.42
2023-03-20T16:45:31.362Z,99.50
2023-03-20T16:48:23.582Z,99.83
2023-03-20T16:50:56.920Z,99.62
2023-03-20T16:53:24.844Z,100.00
2023-03-20T16:55:52.212Z,100.00
2023-03-20T16:58:23.315Z,100.00
2023-03-20T17:00:57.582Z,99.87
2023-03-20T17:03:30.528Z,100.00
2023-03-20T17:05:59.526Z,100.00
2023-03-20T17:08:34.429Z,100.00
2023-03-20T17:11:09.241Z,100.00
2023-03-20T17:13:35.698Z,100.00
2023-03-20T17:16:02.290Z,100.00
2023-03-20T17:18:29.554Z,100.00
2023-03-20T17:20:56.116Z,100.00
2023-03-20T17:23:23.387Z,100.00
2023-03-20T17:25:50.846Z,100.00
2023-03-20T17:28:24.207Z,100.00
2023-03-20T17:30:51.703Z,100.00
2023-03-20T17:33:21.221Z,100.00
2023-03-20T17:35:48.402Z,100.00
2023-03-20T17:38:17.892Z,100.00
2023-03-20T17:40:44.408Z,100.00
2023-03-20T17:43:13.111Z,100.00
2023-03-20T17:45:40.059Z,100.00
2023-03-20T17:48:15.592Z,100.00
2023-03-20T17:50:44.417Z,100.00
2023-03-20T17:53:16.118Z,100.00
2023-03-20T17:55:42.656Z,100.00
2023-03-20T17:58:14.143Z,100.00
2023-03-20T18:00:40.552Z,100.00
2023-03-20T18:03:06.923Z,100.00
2023-03-20T18:05:34.495Z,100.00
2023-03-20T18:08:00.944Z,100.00
2023-03-20T18:10:35.106Z,100.00
2023-03-20T18:13:02.086Z,100.00
2023-03-20T18:15:28.849Z,100.00
2023-03-20T18:17:55.498Z,100.00
2023-03-20T18:20:26.479Z,100.00
2023-03-20T18:22:53.291Z,100.00
2023-03-20T18:25:20.138Z,100.00
2023-03-20T18:27:46.597Z,100.00
2023-03-20T18:30:20.112Z,100.00
2023-03-20T18:32:47.356Z,100.00
2023-03-20T18:35:14.004Z,100.00
2023-03-20T18:37:41.242Z,100.00
2023-03-20T18:40:18.517Z,100.00
2023-03-20T18:42:44.927Z,100.00
2023-03-20T18:45:11.955Z,100.00
2023-03-20T18:47:38.663Z,100.00
2023-03-20T18:50:05.447Z,100.00
2023-03-20T18:52:31.905Z,100.00
2023-03-20T18:54:58.313Z,100.00
2023-03-20T18:57:24.788Z,100.00
2023-03-20T18:59:51.194Z,100.00
2023-03-20T19:02:17.614Z,100.00
2023-03-20T19:04:44.114Z,100.00
2023-03-20T19:07:12.561Z,100.00
2023-03-20T19:09:38.899Z,100.00
2023-03-20T19:12:06.151Z,100.00
2023-03-20T19:14:32.486Z,100.00
2023-03-20T19:16:58.881Z,100.00
2023-03-20T19:19:25.409Z,100.00
2023-03-20T19:21:51.811Z,100.00
2023-03-20T19:24:21.500Z,100.00
2023-03-20T19:26:47.989Z,100.00
2023-03-20T19:29:14.653Z,100.00
2023-03-20T19:31:41.160Z,100.00
2023-03-20T19:34:07.867Z,100.00
2023-03-20T19:36:36.783Z,100.00
2023-03-20T19:39:06.338Z,100.00
2023-03-20T19:41:33.060Z,100.00
2023-03-20T19:44:01.317Z,100.00
2023-03-20T19:46:39.651Z,100.00
2023-03-20T19:49:30.849Z,100.00
2023-03-20T19:51:57.627Z,100.00
2023-03-20T19:54:24.233Z,100.00
2023-03-20T19:56:50.682Z,100.00
2023-03-20T19:59:17.381Z,100.00
2023-03-20T20:01:45.257Z,100.00
2023-03-20T20:04:11.848Z,100.00
2023-03-20T20:06:39.957Z,100.00
2023-03-20T20:09:06.920Z,100.00
2023-03-20T20:11:33.321Z,100.00
2023-03-20T20:14:09.116Z,100.00
2023-03-20T20:16:40.020Z,100.00
2023-03-20T20:19:06.728Z,100.00
2023-03-20T20:24:20.012Z,100.00
2023-03-20T20:27:03.504Z,100.00
2023-03-20T20:29:37.542Z,100.00
2023-03-20T20:32:04.293Z,100.00
2023-03-20T20:40:05.112Z,100.00
2023-03-20T20:42:31.616Z,100.00
2023-03-20T20:44:58.026Z,100.00
2023-03-20T20:47:24.449Z,100.00
2023-03-20T20:49:51.211Z,100.00
2023-03-20T20:52:18.045Z,100.00
2023-03-20T20:54:44.628Z,100.00
2023-03-20T20:57:11.935Z,100.00
2023-03-20T20:59:38.990Z,100.00
2023-03-20T21:02:10.814Z,100.00
2023-03-20T21:04:39.621Z,100.00
2023-03-20T21:07:10.416Z,100.00
2023-03-20T21:09:37.934Z,100.00
2023-03-20T21:12:04.947Z,100.00
2023-03-20T21:14:31.473Z,100.00
2023-03-20T21:17:01.093Z,100.00
2023-03-20T21:19:29.720Z,100.00
2023-03-20T21:21:56.365Z,100.00
2023-03-20T21:24:31.998Z,100.00
2023-03-20T21:27:00.273Z,100.00
2023-03-20T21:29:26.740Z,100.00
2023-03-20T21:31:53.310Z,100.00
2023-03-20T21:34:20.040Z,100.00
2023-03-20T21:36:49.246Z,100.00
2023-03-20T21:39:16.897Z,100.00
2023-03-20T21:41:44.155Z,100.00
2023-03-20T21:44:17.207Z,100.00
2023-03-20T21:50:28.700Z,100.00
2023-03-20T21:58:44.406Z,100.00
2023-03-20T22:01:24.847Z,100.00
2023-03-20T22:04:00.517Z,100.00
2023-03-20T22:10:03.513Z,100.00
2023-03-20T22:23:50.766Z,100.00
2023-03-20T22:26:47.261Z,100.00
2023-03-20T22:29:24.179Z,100.00
2023-03-20T22:32:02.384Z,100.00
2023-03-20T22:40:30.523Z,100.00
2023-03-20T22:42:52.894Z,100.00
2023-03-20T22:45:18.598Z,100.00
2023-03-20T22:47:45.600Z,100.00
2023-03-20T22:50:12.013Z,100.00
2023-03-20T22:52:48.637Z,100.00
2023-03-20T22:55:16.698Z,100.00
2023-03-20T22:57:52.806Z,100.00
2023-03-20T23:00:29.681Z,100.00
2023-03-20T23:03:06.754Z,100.00
2023-03-20T23:05:39.993Z,100.00
2023-03-20T23:08:07.852Z,100.00
2023-03-20T23:10:37.794Z,100.00
2023-03-20T23:13:04.623Z,100.00
2023-03-20T23:15:31.525Z,100.00
2023-03-20T23:17:58.376Z,100.00
2023-03-20T23:20:25.476Z,100.00
2023-03-20T23:22:52.048Z,100.00
2023-03-20T23:25:31.083Z,100.00
2023-03-20T23:28:06.009Z,100.00
2023-03-20T23:30:43.478Z,100.00
2023-03-20T23:33:10.629Z,100.00
2023-03-20T23:35:37.082Z,100.00
2023-03-20T23:38:03.670Z,100.00
2023-03-20T23:40:30.924Z,100.00
2023-03-20T23:42:57.305Z,100.00
2023-03-20T23:45:23.687Z,100.00
2023-03-20T23:47:50.361Z,100.00
2023-03-20T23:50:28.609Z,100.00
2023-03-20T23:53:09.534Z,100.00
2023-03-20T23:55:45.438Z,100.00
2023-03-20T23:58:12.931Z,100.00
